Time;durP1;ratioP1;P1;durP2;ratioP2;P2;SDS_P1;SDS_P2;PMS_P1;PMS_P2;Temp;Humidity;BMP_temperature;BMP_pressure;BME280_temperature;BME280_humidity;BME280_pressure;Samples;Min_cycle;Max_cycle;Signal;HPM_P1;HPM_P2
2022/12/08 00:01:18;;;;;;;29.63;15.15;;;2.90;99.90;;;1.09;100.00;99969.16;5027301;28;20037;-76
2022/12/08 00:03:45;;;;;;;27.77;14.73;;;2.90;99.90;;;1.04;100.00;99950.84;5026843;28;20124;-76
2022/12/08 00:09:34;;;;;;;24.80;14.95;;;3.00;99.90;;;1.17;100.00;99955.69;5026536;28;20033;-76
2022/12/08 00:12:07;;;;;;;26.45;14.57;;;3.00;99.90;;;1.19;100.00;99969.78;5026066;28;20108;-76
2022/12/08 00:14:43;;;;;;;29.65;13.73;;;3.00;99.90;;;1.17;100.00;99958.38;5022720;28;20026;-77
2022/12/08 00:17:12;;;;;;;26.15;14.15;;;3.00;99.90;;;1.13;100.00;99959.75;5026884;28;20038;-76
2022/12/08 00:19:39;;;;;;;21.55;12.35;;;3.00;99.90;;;1.12;100.00;99958.06;5026298;28;20060;-76
2022/12/08 00:22:09;;;;;;;23.00;12.90;;;2.90;99.90;;;1.07;100.00;99955.06;5026940;28;20087;-76
2022/12/08 00:24:38;;;;;;;21.15;12.48;;;2.90;99.90;;;0.96;100.00;99946.34;5026160;28;20032;-76
2022/12/08 00:27:06;;;;;;;21.77;12.30;;;2.80;99.90;;;0.83;100.00;99948.72;5025879;28;20510;-76
2022/12/08 00:29:31;;;;;;;21.92;12.48;;;2.70;99.90;;;0.84;100.00;99951.22;5024329;28;20451;-77
2022/12/08 00:31:57;;;;;;;26.52;13.27;;;2.70;99.90;;;0.84;100.00;99945.03;5026258;28;20178;-78
2022/12/08 00:34:23;;;;;;;19.83;11.52;;;2.70;99.90;;;0.87;100.00;99944.69;5025513;28;20083;-78
2022/12/08 00:36:49;;;;;;;22.98;11.80;;;2.70;99.90;;;0.84;100.00;99940.47;5026635;28;20029;-78
2022/12/08 00:39:16;;;;;;;19.65;11.48;;;2.70;99.90;;;0.80;100.00;99938.31;5026253;28;20052;-77
2022/12/08 00:44:27;;;;;;;20.55;11.82;;;2.60;99.90;;;0.76;100.00;99935.13;5025176;28;20025;-76
2022/12/08 00:46:53;;;;;;;21.80;11.15;;;2.60;99.90;;;0.80;100.00;99938.31;5026951;28;20031;-76
2022/12/08 00:49:19;;;;;;;28.77;12.52;;;2.60;99.90;;;0.74;100.00;99939.84;5026487;28;20345;-78
2022/12/08 00:51:45;;;;;;;19.42;11.90;;;2.60;99.90;;;0.75;100.00;99949.56;5025870;28;20182;-77
2022/12/08 00:54:11;;;;;;;22.98;11.73;;;2.50;99.90;;;0.77;100.00;99934.13;5025201;28;20033;-76
2022/12/08 01:04:50;;;;;;;20.00;11.52;;;2.80;99.90;;;1.09;100.00;99943.09;5009572;28;20045;-76
2022/12/08 01:07:16;;;;;;;22.92;11.02;;;2.90;99.90;;;1.12;100.00;99944.63;5009300;28;20029;-76
2022/12/08 01:09:42;;;;;;;19.40;10.63;;;2.90;99.90;;;1.12;100.00;99942.75;5009764;28;20038;-76
2022/12/08 01:12:08;;;;;;;20.45;10.50;;;2.90;99.90;;;1.12;100.00;99941.94;5012872;28;20556;-76
2022/12/08 01:14:35;;;;;;;18.00;9.80;;;3.00;99.90;;;1.13;100.00;99940.94;5009902;28;20030;-76
2022/12/08 01:17:01;;;;;;;18.92;10.15;;;3.00;99.90;;;1.15;100.00;99936.22;5009165;28;20033;-76
2022/12/08 01:19:27;;;;;;;16.15;9.68;;;2.90;99.90;;;1.09;100.00;99935.06;5010641;28;20030;-76
2022/12/08 01:21:52;;;;;;;17.55;9.88;;;2.90;99.90;;;1.06;100.00;99935.41;5013891;28;20503;-77
2022/12/08 01:24:20;;;;;;;18.80;9.63;;;2.90;99.90;;;1.02;100.00;99938.59;5015015;28;20496;-76
2022/12/08 01:26:48;;;;;;;18.20;9.60;;;2.90;99.90;;;1.00;100.00;99933.41;5011760;28;20033;-76
2022/12/08 01:29:14;;;;;;;19.02;9.52;;;2.80;99.90;;;0.99;100.00;99945.97;5013412;28;20049;-76
2022/12/08 01:31:40;;;;;;;18.73;9.45;;;2.80;99.90;;;0.98;100.00;99938.94;5012630;28;20528;-76
2022/12/08 01:34:07;;;;;;;16.40;10.10;;;2.80;99.90;;;1.00;100.00;99944.16;5013587;28;20054;-76
2022/12/08 01:36:38;;;;;;;15.38;9.77;;;2.80;99.90;;;1.03;100.00;99943.81;5013557;28;20036;-76
2022/12/08 01:39:14;;;;;;;19.27;9.48;;;2.80;99.90;;;1.00;100.00;99933.41;5013250;28;20101;-78
2022/12/08 01:41:42;;;;;;;14.70;9.27;;;2.80;99.90;;;0.92;100.00;99928.03;5014109;28;20026;-78
2022/12/08 01:44:11;;;;;;;15.73;10.10;;;2.80;99.90;;;0.80;100.00;99931.09;5013645;28;20049;-78
2022/12/08 01:46:46;;;;;;;17.80;10.15;;;2.70;99.90;;;0.74;100.00;99925.56;5015635;28;20491;-78
2022/12/08 01:49:21;;;;;;;23.15;11.25;;;2.60;99.90;;;0.64;100.00;99918.53;5013058;28;20025;-78
2022/12/08 01:51:49;;;;;;;21.30;11.88;;;2.50;99.90;;;0.60;100.00;99921.72;5013328;28;20049;-78
2022/12/08 01:54:16;;;;;;;21.05;11.68;;;2.40;99.90;;;0.55;100.00;99927.59;5014724;28;20060;-77
2022/12/08 01:57:08;;;;;;;21.77;11.57;;;2.40;99.90;;;0.43;100.00;99917.19;5012698;28;20388;-77
2022/12/08 01:59:43;;;;;;;20.55;11.70;;;2.30;99.90;;;0.36;100.00;99916.19;5013132;28;20028;-77
2022/12/08 02:02:10;;;;;;;21.38;12.15;;;2.20;99.90;;;0.36;100.00;99916.19;5017543;28;20396;-78
2022/12/08 02:04:37;;;;;;;23.00;11.70;;;2.20;99.90;;;0.33;100.00;99911.16;5012988;28;20038;-77
2022/12/08 02:07:05;;;;;;;23.15;11.95;;;2.20;99.90;;;0.33;100.00;99902.25;5013286;28;20481;-77
2022/12/08 02:09:32;;;;;;;21.10;11.27;;;2.20;99.90;;;0.30;100.00;99900.78;5025272;28;20045;-76
2022/12/08 02:11:59;;;;;;;25.42;11.60;;;2.10;99.90;;;0.29;100.00;99899.09;5012855;28;20129;-77
2022/12/08 02:14:25;;;;;;;24.77;11.88;;;2.10;99.90;;;0.28;100.00;99895.56;5012979;28;20026;-77
2022/12/08 02:17:38;;;;;;;23.02;11.63;;;2.10;99.90;;;0.31;100.00;99885.50;5011304;28;20372;-77
2022/12/08 02:20:43;;;;;;;23.17;11.50;;;2.10;99.90;;;0.31;100.00;99894.41;5014192;28;20038;-78
2022/12/08 02:23:29;;;;;;;23.33;10.95;;;2.20;99.90;;;0.28;100.00;99894.75;5012715;28;20095;-77
2022/12/08 02:26:45;;;;;;;25.25;11.63;;;2.10;99.90;;;0.29;100.00;99883.00;5011683;28;20456;-77
2022/12/08 02:29:38;;;;;;;21.05;10.48;;;2.10;99.90;;;0.34;100.00;99874.44;5016015;28;20034;-77
2022/12/08 02:32:58;;;;;;;18.95;11.07;;;2.10;99.90;;;0.35;100.00;99876.94;5010655;28;20083;-76
2022/12/08 02:35:58;;;;;;;19.67;10.63;;;2.20;99.90;;;0.37;100.00;99869.56;5011759;28;20026;-77
2022/12/08 02:38:43;;;;;;;19.77;10.40;;;2.20;99.90;;;0.43;100.00;99874.25;5011984;28;20762;-77
2022/12/08 02:41:23;;;;;;;22.58;10.85;;;2.30;99.90;;;0.46;100.00;99867.72;5012119;28;20048;-77
2022/12/08 02:44:34;;;;;;;20.80;10.77;;;2.30;99.90;;;0.51;100.00;99875.25;5012522;28;20511;-76
2022/12/08 02:47:11;;;;;;;23.05;11.05;;;2.30;99.90;;;0.52;100.00;99876.91;5014913;28;20133;-77
2022/12/08 02:49:37;;;;;;;27.40;11.25;;;2.30;99.90;;;0.52;100.00;99863.50;5011326;28;20080;-76
2022/12/08 02:52:27;;;;;;;22.17;10.82;;;2.40;99.90;;;0.56;100.00;99864.84;5011818;28;20050;-77
2022/12/08 02:55:01;;;;;;;18.77;10.45;;;2.40;99.90;;;0.57;100.00;99866.53;5012825;28;20033;-77
2022/12/08 02:58:08;;;;;;;16.63;10.05;;;2.40;99.90;;;0.56;100.00;99883.66;5014400;28;20369;-76
2022/12/08 03:01:04;;;;;;;19.83;10.20;;;2.40;99.90;;;0.57;100.00;99864.66;4999361;28;20045;-78
2022/12/08 03:03:55;;;;;;;17.00;9.27;;;2.40;99.90;;;0.52;100.00;99867.03;5011055;28;20061;-78
2022/12/08 03:06:49;;;;;;;16.52;8.90;;;2.40;99.90;;;0.65;100.00;99871.03;5012313;28;20025;-77
2022/12/08 03:09:34;;;;;;;17.15;9.35;;;2.50;99.90;;;0.68;100.00;99876.06;5011565;28;20123;-76
2022/12/08 03:12:21;;;;;;;13.35;8.13;;;2.50;99.90;;;0.71;100.00;99875.72;5017417;28;20403;-78
2022/12/08 03:14:54;;;;;;;17.85;8.85;;;2.50;99.90;;;0.73;100.00;99875.53;5014419;28;20025;-77
2022/12/08 03:17:25;;;;;;;16.73;8.27;;;2.50;99.90;;;0.76;100.00;99870.69;5013552;28;20030;-77
2022/12/08 03:19:53;;;;;;;14.32;8.02;;;2.60;99.90;;;0.81;100.00;99867.50;5011081;28;20033;-77
2022/12/08 03:22:24;;;;;;;19.38;9.23;;;2.60;99.90;;;0.84;100.00;99853.72;5011889;28;20125;-77
2022/12/08 03:24:50;;;;;;;13.75;8.00;;;2.70;99.90;;;0.89;100.00;99854.03;5011375;28;20481;-77
2022/12/08 03:27:23;;;;;;;17.10;7.82;;;2.70;99.90;;;0.84;100.00;99849.16;5011621;28;20645;-76
2022/12/08 03:29:53;;;;;;;13.50;8.27;;;2.70;99.90;;;0.83;100.00;99842.13;5012001;28;20076;-78
2022/12/08 03:32:32;;;;;;;14.38;8.18;;;2.70;99.90;;;0.84;100.00;99846.47;5011022;28;20376;-76
2022/12/08 03:35:04;;;;;;;13.18;8.02;;;2.70;99.90;;;0.86;100.00;99843.63;5010617;28;20042;-77
2022/12/08 03:37:30;;;;;;;13.38;8.25;;;2.70;99.90;;;0.86;100.00;99839.06;5010922;28;20243;-76
2022/12/08 03:39:56;;;;;;;13.13;7.35;;;2.70;99.90;;;0.88;100.00;99833.53;5011383;28;20091;-76
2022/12/08 03:42:22;;;;;;;15.65;8.00;;;2.70;99.90;;;0.95;100.00;99831.84;5011215;28;20061;-78
2022/12/08 03:44:47;;;;;;;13.98;7.93;;;2.80;99.90;;;0.97;100.00;99832.50;5011195;28;20076;-76
2022/12/08 03:47:13;;;;;;;13.50;7.30;;;2.80;99.90;;;0.98;100.00;99830.66;5011540;28;20137;-78
2022/12/08 03:49:39;;;;;;;14.60;7.47;;;2.80;99.90;;;0.97;100.00;99820.94;5011252;28;20061;-77
2022/12/08 03:52:05;;;;;;;14.70;7.35;;;2.80;99.90;;;0.95;100.00;99823.78;5011203;28;20210;-77
2022/12/08 03:54:31;;;;;;;14.35;6.95;;;2.80;99.90;;;0.93;100.00;99827.63;5010579;28;21004;-77
2022/12/08 03:56:56;;;;;;;14.88;7.40;;;2.80;99.90;;;0.90;100.00;99818.09;5010086;28;20342;-77
2022/12/08 03:59:22;;;;;;;13.32;7.70;;;2.70;99.90;;;0.93;100.00;99819.56;5011299;28;20030;-76
2022/12/08 04:01:48;;;;;;;16.48;7.95;;;2.80;99.90;;;0.90;100.00;99811.88;5011182;28;20081;-76
2022/12/08 04:04:14;;;;;;;12.88;7.47;;;2.70;99.90;;;0.90;100.00;99812.72;5010164;28;20037;-77
2022/12/08 04:06:39;;;;;;;13.40;6.38;;;2.70;99.90;;;0.95;100.00;99814.91;5014921;28;20029;-77
2022/12/08 04:09:05;;;;;;;13.68;7.25;;;2.80;99.90;;;0.96;100.00;99812.03;5010016;28;20030;-78
2022/12/08 04:11:31;;;;;;;14.20;7.43;;;2.80;99.90;;;0.94;100.00;99806.00;5010393;28;20026;-77
2022/12/08 04:13:56;;;;;;;16.77;7.90;;;2.80;99.90;;;0.92;100.00;99809.84;5011313;28;20034;-78
2022/12/08 04:16:26;;;;;;;14.50;7.40;;;2.80;99.90;;;0.90;100.00;99801.13;5010429;28;20036;-77
2022/12/08 04:18:52;;;;;;;15.45;8.00;;;2.70;99.90;;;0.89;100.00;99803.00;5010583;28;20109;-76
2022/12/08 04:21:19;;;;;;;14.82;7.78;;;2.70;99.90;;;0.86;100.00;99797.97;5010762;28;20042;-77
2022/12/08 04:23:45;;;;;;;16.35;7.68;;;2.70;99.90;;;0.85;100.00;99802.50;5010934;28;20033;-76
2022/12/08 04:26:12;;;;;;;14.20;8.38;;;2.70;99.90;;;0.80;100.00;99798.69;5010339;28;20053;-76
2022/12/08 04:28:38;;;;;;;13.93;8.43;;;2.60;99.90;;;0.77;100.00;99793.63;5009989;28;20071;-77
2022/12/08 04:31:04;;;;;;;13.43;8.50;;;2.60;99.90;;;0.76;100.00;99783.91;5009421;28;20072;-77
2022/12/08 04:33:31;;;;;;;17.33;9.23;;;2.60;99.90;;;0.78;100.00;99790.78;5010413;28;20041;-77
2022/12/08 04:35:56;;;;;;;16.63;8.60;;;2.60;99.90;;;0.76;100.00;99794.63;5010324;28;20428;-77
2022/12/08 04:38:23;;;;;;;17.95;9.43;;;2.60;99.90;;;0.77;100.00;99788.25;5009995;28;20034;-77
2022/12/08 04:40:49;;;;;;;16.83;9.75;;;2.60;99.90;;;0.77;100.00;99788.25;5010587;28;20029;-77
2022/12/08 04:43:15;;;;;;;16.88;9.25;;;2.60;99.90;;;0.75;100.00;99792.97;5009380;28;20472;-77
2022/12/08 04:45:41;;;;;;;19.48;9.65;;;2.60;99.90;;;0.74;100.00;99788.59;5021486;28;20037;-77
2022/12/08 04:48:08;;;;;;;19.90;9.82;;;2.60;99.90;;;0.71;100.00;99787.94;5010484;28;20511;-77
2022/12/08 04:50:34;;;;;;;16.33;9.07;;;2.60;99.90;;;0.74;100.00;99781.41;5010196;28;20096;-78
2022/12/08 04:53:00;;;;;;;17.73;9.25;;;2.60;99.90;;;0.71;100.00;99762.97;5010168;28;20121;-77
2022/12/08 04:55:25;;;;;;;14.93;8.57;;;2.60;99.90;;;0.76;100.00;99779.38;5009950;28;20133;-77
2022/12/08 04:57:51;;;;;;;17.05;9.55;;;2.60;99.90;;;0.78;100.00;99781.88;5012252;28;20052;-77
2022/12/08 05:00:17;;;;;;;21.65;9.80;;;2.60;99.90;;;0.73;100.00;99770.81;5024996;28;20044;-77
2022/12/08 05:02:43;;;;;;;20.75;10.10;;;2.60;99.90;;;0.78;100.00;99779.19;5026190;28;20061;-76
2022/12/08 05:05:09;;;;;;;19.33;10.18;;;2.60;99.90;;;0.82;100.00;99775.16;5024804;28;20040;-77
2022/12/08 05:07:35;;;;;;;19.70;9.73;;;2.60;99.90;;;0.84;100.00;99765.09;5025606;28;20464;-77
2022/12/08 05:10:01;;;;;;;19.45;10.07;;;2.70;99.90;;;0.83;100.00;99766.91;5016725;28;20033;-78
2022/12/08 05:12:27;;;;;;;19.75;9.23;;;2.70;99.90;;;0.83;100.00;99768.78;5025996;28;20468;-77
2022/12/08 05:14:52;;;;;;;18.67;9.23;;;2.70;99.90;;;0.78;100.00;99758.56;5026433;28;20037;-78
2022/12/08 05:17:18;;;;;;;17.25;10.25;;;2.60;99.90;;;0.84;100.00;99765.91;5026024;28;20040;-77
2022/12/08 05:19:44;;;;;;;16.83;9.48;;;2.70;99.90;;;0.86;100.00;99760.38;5026313;28;20040;-77
2022/12/08 05:22:10;;;;;;;16.45;9.18;;;2.70;99.90;;;0.90;100.00;99767.06;5025890;28;20603;-77
2022/12/08 05:24:36;;;;;;;16.17;9.48;;;2.70;99.90;;;0.88;100.00;99758.34;5024783;28;20048;-77
2022/12/08 05:27:02;;;;;;;17.20;9.85;;;2.60;99.90;;;0.83;100.00;99758.88;5024572;28;20041;-77
2022/12/08 05:29:28;;;;;;;18.08;10.27;;;2.70;99.90;;;0.87;100.00;99762.03;5024337;28;20235;-77
2022/12/08 05:31:53;;;;;;;16.65;10.13;;;2.70;99.90;;;0.89;100.00;99754.66;5025661;28;20087;-77
2022/12/08 05:34:19;;;;;;;17.55;9.63;;;2.70;99.90;;;0.89;100.00;99759.16;5026387;28;20021;-77
2022/12/08 05:36:45;;;;;;;19.38;11.77;;;2.70;99.90;;;0.94;100.00;99764.88;5025240;28;20170;-77
2022/12/08 05:39:13;;;;;;;18.27;10.20;;;2.70;99.90;;;0.95;100.00;99753.94;5025937;28;20029;-77
2022/12/08 05:41:39;;;;;;;;;;;2.70;99.90;;;0.93;100.00;99744.38;5026556;28;20403;-77
2022/12/08 05:44:05;;;;;;;18.17;9.93;;;2.80;99.90;;;0.94;100.00;99752.25;5025121;28;19952;-77
2022/12/08 05:46:32;;;;;;;17.63;10.23;;;2.80;99.90;;;0.91;100.00;99739.19;5024387;28;20334;-77
2022/12/08 05:49:00;;;;;;;19.48;10.13;;;2.80;99.90;;;0.93;100.00;99747.06;5025243;28;20065;-76
2022/12/08 05:51:26;;;;;;;21.17;10.45;;;2.80;99.90;;;0.93;100.00;99739.84;5021750;28;20047;-76
2022/12/08 05:53:53;;;;;;;17.65;10.10;;;2.80;99.90;;;0.93;100.00;99745.22;5026289;28;20391;-78
2022/12/08 05:56:19;;;;;;;17.38;10.25;;;2.70;99.90;;;0.93;100.00;99739.84;5025352;28;20038;-76
2022/12/08 05:58:46;;;;;;;23.95;12.05;;;2.80;99.90;;;0.92;100.00;99731.94;5024447;28;20135;-77
2022/12/08 06:01:28;;;;;;;21.50;11.43;;;2.80;99.90;;;0.94;100.00;99749.56;5023923;28;20061;-77
2022/12/08 06:03:55;;;;;;;22.85;12.25;;;2.70;99.90;;;0.89;100.00;99738.53;5023499;28;20048;-77
2022/12/08 06:06:21;;;;;;;19.15;12.05;;;2.70;99.90;;;0.91;100.00;99741.88;5028302;28;20040;-77
2022/12/08 06:08:47;;;;;;;21.50;12.52;;;2.70;99.90;;;0.93;100.00;99739.00;5029173;28;20053;-77
2022/12/08 06:11:26;;;;;;;23.20;12.48;;;2.70;99.90;;;0.95;100.00;99735.13;5029176;28;20037;-76
2022/12/08 06:13:53;;;;;;;;;;;2.70;99.90;;;0.95;100.00;99737.81;5029526;28;20408;-78
2022/12/08 06:16:20;;;;;;;23.15;13.50;;;2.80;99.90;;;1.00;100.00;99742.69;5028562;28;19913;-77
2022/12/08 06:18:46;;;;;;;27.35;14.98;;;2.80;99.90;;;1.01;100.00;99733.59;5028284;28;20826;-77
2022/12/08 06:21:14;;;;;;;24.77;15.38;;;2.80;99.90;;;1.02;100.00;99723.69;5028397;28;20088;-78
2022/12/08 06:23:41;;;;;;;31.60;17.48;;;2.80;99.90;;;1.05;100.00;99723.31;5028640;28;20037;-77
2022/12/08 06:26:12;;;;;;;28.48;18.08;;;2.90;99.90;;;1.09;100.00;99732.72;5028101;28;20041;-77
2022/12/08 06:28:39;;;;;;;32.33;19.08;;;2.90;99.90;;;1.09;100.00;99738.91;5028639;28;20026;-79
2022/12/08 06:31:25;;;;;;;35.03;20.45;;;2.90;99.90;;;1.07;100.00;99743.63;5028508;28;20036;-78
2022/12/08 06:33:52;;;;;;;34.80;20.95;;;2.90;99.90;;;1.11;100.00;99728.00;5023477;28;20491;-79
2022/12/08 06:36:22;;;;;;;38.77;20.83;;;2.90;99.90;;;1.05;100.00;99720.63;5028647;28;20128;-78
2022/12/08 06:38:48;;;;;;;35.13;19.52;;;2.90;99.90;;;1.07;100.00;99726.69;5027449;28;20401;-76
2022/12/08 06:41:15;;;;;;;34.78;19.58;;;2.90;99.90;;;0.92;100.00;99719.38;5019905;28;20093;-78
2022/12/08 06:43:41;;;;;;;35.85;20.10;;;2.80;99.90;;;0.96;100.00;99728.75;5028301;28;20076;-78
2022/12/08 06:46:12;;;;;;;31.92;19.95;;;2.80;99.90;;;0.91;100.00;99724.91;5027882;28;20038;-78
2022/12/08 06:48:37;;;;;;;33.72;19.42;;;2.80;99.90;;;0.93;100.00;99725.56;5028740;28;20083;-78
2022/12/08 06:51:10;;;;;;;33.92;19.75;;;2.70;99.90;;;0.88;100.00;99736.00;5029161;28;20025;-76
2022/12/08 06:53:36;;;;;;;35.03;18.92;;;2.70;99.90;;;0.86;100.00;99733.50;5027595;28;20057;-77
2022/12/08 06:56:02;;;;;;;32.63;18.75;;;2.70;99.90;;;0.80;100.00;99732.34;5026334;28;20025;-75
2022/12/08 06:58:28;;;;;;;35.70;19.10;;;2.60;99.90;;;0.75;100.00;99732.06;5029145;28;20033;-77
2022/12/08 07:00:54;;;;;;;34.55;18.60;;;2.60;99.90;;;0.75;100.00;99736.56;5026837;28;20048;-76
2022/12/08 07:03:20;;;;;;;37.13;19.80;;;2.60;99.90;;;0.73;100.00;99739.44;5028167;28;20064;-77
2022/12/08 07:05:46;;;;;;;33.10;19.38;;;2.60;99.90;;;0.61;100.00;99725.56;5026508;28;20479;-77
2022/12/08 07:08:11;;;;;;;33.33;18.40;;;2.60;99.90;;;0.70;100.00;99751.38;5027543;28;20029;-76
2022/12/08 07:10:37;;;;;;;34.42;19.38;;;2.50;99.90;;;0.67;100.00;99738.28;5027985;28;20034;-76
2022/12/08 07:13:03;;;;;;;35.97;19.55;;;2.50;99.90;;;0.65;100.00;99743.00;5027269;28;20034;-76
2022/12/08 07:15:29;;;;;;;34.70;18.90;;;2.50;99.90;;;0.61;100.00;99741.69;5021824;28;20444;-76
2022/12/08 07:17:54;;;;;;;37.35;19.83;;;2.40;99.90;;;0.57;100.00;99735.00;5026856;28;20500;-76
2022/12/08 07:20:20;;;;;;;35.25;17.90;;;2.40;99.90;;;0.56;100.00;99738.69;5022597;28;20042;-75
2022/12/08 07:22:51;;;;;;;33.65;18.15;;;2.40;99.90;;;0.59;100.00;99745.53;5025295;28;20029;-76
2022/12/08 07:25:18;;;;;;;34.47;18.00;;;2.40;99.90;;;0.49;100.00;99737.69;5023596;28;20493;-76
2022/12/08 07:27:44;;;;;;;33.03;18.30;;;2.40;99.90;;;0.49;100.00;99743.06;5026657;28;20463;-76
2022/12/08 07:30:11;;;;;;;32.78;17.58;;;2.30;99.90;;;0.45;100.00;99745.25;5027587;28;20045;-76
2022/12/08 07:32:38;;;;;;;32.20;16.52;;;2.30;99.90;;;0.43;100.00;99744.59;5029618;28;20383;-76
2022/12/08 07:35:06;;;;;;;29.90;16.17;;;2.30;99.90;;;0.39;100.00;99749.47;5020387;28;20052;-76
2022/12/08 07:37:33;;;;;;;27.52;15.30;;;2.30;99.90;;;0.35;100.00;99748.13;5024287;28;20045;-77
2022/12/08 07:39:59;;;;;;;27.42;14.93;;;2.20;99.90;;;0.25;100.00;99742.13;5027368;28;20033;-77
2022/12/08 07:42:25;;;;;;;23.83;13.63;;;2.20;99.90;;;0.22;100.00;99746.00;5019564;28;20562;-77
2022/12/08 07:44:51;;;;;;;27.48;14.70;;;2.10;99.90;;;0.09;100.00;99727.75;5020626;28;20456;-78
2022/12/08 07:47:16;;;;;;;25.27;14.68;;;2.00;99.90;;;0.14;100.00;99737.97;5026093;28;20030;-77
2022/12/08 07:49:42;;;;;;;26.58;14.30;;;2.00;99.90;;;0.16;100.00;99732.41;5028330;28;20042;-78
2022/12/08 07:52:08;;;;;;;31.20;14.85;;;2.00;99.90;;;0.17;100.00;99731.41;5024669;28;20084;-78
2022/12/08 07:54:34;;;;;;;27.75;15.15;;;2.10;99.90;;;0.23;100.00;99750.34;5025409;28;20411;-79
2022/12/08 07:57:02;;;;;;;28.67;16.25;;;2.10;99.90;;;0.24;100.00;99730.56;5048362;28;20025;-77
2022/12/08 07:59:28;;;;;;;32.95;15.90;;;2.10;99.90;;;0.25;100.00;99726.00;5029107;28;20041;-78
2022/12/08 08:01:53;;;;;;;31.55;15.60;;;2.10;99.90;;;0.30;100.00;99734.41;5027642;28;20424;-78
2022/12/08 08:04:19;;;;;;;41.45;19.05;;;2.10;99.90;;;0.33;100.00;99727.84;5029207;28;20060;-77
2022/12/08 08:06:45;;;;;;;42.10;20.27;;;2.20;99.90;;;0.36;100.00;99736.41;5025457;28;20104;-77
2022/12/08 08:09:10;;;;;;;41.38;21.00;;;2.20;99.90;;;0.40;100.00;99729.66;5025277;28;20029;-78
2022/12/08 08:11:36;;;;;;;45.42;23.00;;;2.30;99.90;;;0.43;100.00;99737.38;5022216;28;20115;-78
2022/12/08 08:14:02;;;;;;;49.22;22.67;;;2.30;99.90;;;0.44;100.00;99730.16;5025652;28;20112;-78
2022/12/08 08:16:28;;;;;;;49.75;23.48;;;2.30;99.90;;;0.50;100.00;99731.31;5028641;28;20022;-77
2022/12/08 08:18:53;;;;;;;48.10;22.92;;;2.30;99.90;;;0.53;100.00;99734.50;5021588;28;20393;-77
2022/12/08 08:21:20;;;;;;;48.90;23.65;;;2.40;99.90;;;0.58;100.00;99736.66;5024432;28;20142;-77
2022/12/08 08:23:46;;;;;;;53.03;23.73;;;2.40;99.90;;;0.61;100.00;99733.63;5037605;28;20140;-77
2022/12/08 08:26:12;;;;;;;48.15;22.77;;;2.40;99.90;;;0.64;100.00;99735.97;5021000;28;20073;-77
2022/12/08 08:28:38;;;;;;;48.47;23.95;;;2.40;99.90;;;0.65;100.00;99736.78;5018209;28;20496;-77
2022/12/08 08:31:05;;;;;;;51.08;24.58;;;2.50;99.90;;;0.64;100.00;99729.75;5019684;28;20065;-77
2022/12/08 08:33:32;;;;;;;52.58;23.48;;;2.50;99.90;;;0.67;100.00;99738.28;5026111;28;20382;-77
2022/12/08 08:35:58;;;;;;;57.95;25.17;;;2.50;99.90;;;0.69;100.00;99733.59;5015988;28;20046;-77
2022/12/08 08:38:24;;;;;;;48.95;24.38;;;2.50;99.90;;;0.72;100.00;99737.78;5020637;28;20026;-78
2022/12/08 08:40:50;;;;;;;48.65;23.95;;;2.60;99.90;;;0.71;100.00;99731.56;5018968;28;20424;-78
2022/12/08 08:43:27;;;;;;;51.85;24.60;;;2.60;99.90;;;0.79;100.00;99741.44;5022244;28;20056;-77
2022/12/08 08:46:04;;;;;;;48.28;23.33;;;2.60;99.90;;;0.80;100.00;99739.59;5025759;28;20032;-78
2022/12/08 08:48:32;;;;;;;45.33;22.88;;;2.60;99.90;;;0.81;100.00;99741.28;5023428;28;20025;-78
2022/12/08 08:51:05;;;;;;;52.15;23.40;;;2.70;99.90;;;0.78;100.00;99739.75;5025280;28;20037;-78
2022/12/08 08:53:31;;;;;;;48.92;23.00;;;2.60;99.90;;;0.78;100.00;99747.81;5033216;28;20024;-78
2022/12/08 08:55:56;;;;;;;44.10;22.63;;;2.60;99.90;;;0.76;100.00;99744.47;5030979;28;20473;-77
2022/12/08 08:58:22;;;;;;;48.83;23.52;;;2.60;99.90;;;0.81;100.00;99744.78;5020348;28;20493;-77
2022/12/08 09:00:48;;;;;;;48.22;22.75;;;2.60;99.90;;;0.81;100.00;99749.31;5023992;28;20033;-77
2022/12/08 09:03:13;;;;;;;45.80;21.92;;;2.70;99.90;;;0.81;100.00;99741.28;5023758;28;20033;-77
2022/12/08 09:05:40;;;;;;;42.47;21.52;;;2.70;99.90;;;0.84;100.00;99747.09;5021765;28;20423;-76
2022/12/08 09:08:06;;;;;;;46.30;22.23;;;2.70;99.90;;;0.86;100.00;99750.44;5024297;28;20124;-79
2022/12/08 09:10:32;;;;;;;45.63;22.17;;;2.70;99.90;;;0.84;100.00;99749.78;5027400;28;20091;-78
2022/12/08 09:12:58;;;;;;;40.65;20.13;;;2.70;99.90;;;0.88;100.00;99750.28;5023270;28;20038;-78
2022/12/08 09:15:23;;;;;;;44.55;21.95;;;2.70;99.90;;;0.80;100.00;99743.09;5022713;28;20058;-78
2022/12/08 09:17:49;;;;;;;45.45;20.25;;;2.70;99.90;;;0.87;100.00;99754.00;5023654;28;20396;-77
2022/12/08 09:20:15;;;;;;;38.88;19.08;;;2.70;99.90;;;0.90;100.00;99755.47;5023234;28;20033;-77
2022/12/08 09:22:41;;;;;;;35.05;18.55;;;2.70;99.90;;;0.94;100.00;99760.31;5023842;28;20044;-77
2022/12/08 09:25:07;;;;;;;33.90;16.92;;;2.80;99.90;;;1.02;100.00;99753.22;5023243;28;20132;-76
2022/12/08 09:27:33;;;;;;;34.75;17.13;;;2.80;99.90;;;1.00;100.00;99751.56;5023594;28;20475;-76
2022/12/08 09:29:59;;;;;;;33.50;17.58;;;2.90;99.90;;;1.01;100.00;99757.78;5022261;28;20075;-77
2022/12/08 09:32:24;;;;;;;33.13;16.40;;;2.90;99.90;;;1.07;100.00;99753.56;5021795;28;20040;-76
2022/12/08 09:34:50;;;;;;;34.60;17.30;;;2.90;99.90;;;1.11;100.00;99755.69;5024167;28;20022;-76
2022/12/08 09:37:16;;;;;;;31.98;16.73;;;2.90;99.90;;;1.20;100.00;99763.72;5024386;28;20109;-78
2022/12/08 09:39:42;;;;;;;32.05;17.08;;;3.00;99.90;;;1.22;100.00;99753.63;5024474;28;20396;-78
2022/12/08 09:42:10;;;;;;;34.65;17.92;;;3.10;99.90;;;1.22;100.00;99762.53;5027356;28;20050;-78
2022/12/08 09:45:00;;;;;;;;;;;3.10;99.90;;;1.20;100.00;99767.25;5030811;28;20040;-80
2022/12/08 09:47:39;;;;;;;31.08;17.15;;;3.00;99.90;;;1.27;100.00;99768.19;5026174;28;19999;-79
2022/12/08 09:50:48;;;;;;;31.75;16.50;;;3.10;99.90;;;1.32;100.00;99767.66;5033365;28;20106;-80
2022/12/08 09:53:28;;;;;;;34.03;16.35;;;3.10;99.90;;;1.31;100.00;99767.84;5041524;28;20037;-77
2022/12/08 09:56:09;;;;;;;34.13;16.02;;;3.10;99.90;;;1.29;100.00;99757.28;5029845;28;20116;-77
2022/12/08 09:58:58;;;;;;;27.95;16.20;;;3.10;99.90;;;1.22;100.00;99748.25;5028434;28;20025;-80
2022/12/08 10:01:40;;;;;;;28.95;15.90;;;3.10;99.90;;;1.28;100.00;99756.44;5031265;28;20125;-80
2022/12/08 10:04:37;;;;;;;28.15;16.25;;;3.10;99.90;;;1.25;100.00;99745.22;5032004;28;20448;-80
2022/12/08 10:07:03;;;;;;;23.92;14.18;;;3.10;99.90;;;1.30;100.00;99750.88;5030299;28;20059;-79
2022/12/08 10:10:06;;;;;;;24.80;14.57;;;3.10;99.90;;;1.36;100.00;99755.53;5030363;28;20467;-80
2022/12/08 10:13:18;;;;;;;26.67;15.00;;;3.20;99.90;;;1.40;100.00;99750.66;5026572;28;20045;-80
2022/12/08 10:16:01;;;;;;;25.05;14.35;;;3.20;99.90;;;1.43;100.00;99747.59;5031021;28;20042;-79
2022/12/08 10:18:31;;;;;;;25.58;14.77;;;3.20;99.90;;;1.48;100.00;99745.22;5025018;28;20098;-77
2022/12/08 10:21:19;;;;;;;22.92;13.38;;;3.30;99.90;;;1.57;100.00;99754.88;5029094;28;20107;-78
2022/12/08 10:23:51;;;;;;;21.08;12.23;;;3.40;99.90;;;1.53;100.00;99758.94;5027075;28;20029;-78
2022/12/08 10:26:20;;;;;;;19.95;11.45;;;3.40;99.90;;;1.56;100.00;99745.13;5029713;28;20037;-78
2022/12/08 10:28:47;;;;;;;17.88;10.75;;;3.40;99.90;;;1.62;100.00;99740.09;5029963;28;20032;-77
2022/12/08 10:31:23;;;;;;;19.58;11.45;;;3.40;99.90;;;1.60;100.00;99750.19;5029360;28;20079;-77
2022/12/08 10:33:58;;;;;;;20.50;11.57;;;3.40;99.90;;;1.56;100.00;99745.13;5029847;28;20391;-78
2022/12/08 10:36:52;;;;;;;18.40;11.48;;;3.40;99.90;;;1.57;100.00;99762.13;5028664;28;20079;-78
2022/12/08 10:39:45;;;;;;;19.85;12.35;;;3.40;99.90;;;1.65;100.00;99753.97;5024368;28;20180;-77
2022/12/08 10:42:14;;;;;;;17.15;11.10;;;3.50;99.90;;;1.67;100.00;99745.75;5023635;28;20087;-78
2022/12/08 10:45:10;;;;;;;14.85;10.50;;;3.50;99.90;;;1.64;100.00;99759.56;5028504;28;20498;-78